Time;durP1;ratioP1;P1;durP2;ratioP2;P2;SDS_P1;SDS_P2;PMS_P1;PMS_P2;Temp;Humidity;BMP_temperature;BMP_pressure;BME280_temperature;BME280_humidity;BME280_pressure;Samples;Min_cycle;Max_cycle;Signal;HPM_P1;HPM_P2
2021/06/24 00:02:05;;;;;;;21.33;14.52;;;;;;;;;;5105321;28;20028;-68
2021/06/24 00:04:30;;;;;;;23.15;15.55;;;;;;;;;;5093195;28;20055;-67
2021/06/24 00:06:56;;;;;;;25.77;17.55;;;;;;;;;;5092729;28;20452;-67
2021/06/24 00:09:21;;;;;;;26.52;17.92;;;;;;;;;;5109409;28;20117;-67
2021/06/24 00:11:46;;;;;;;24.95;16.60;;;;;;;;;;5093360;28;20027;-67
2021/06/24 00:14:11;;;;;;;25.02;15.23;;;;;;;;;;5112456;28;20031;-67
2021/06/24 00:16:39;;;;;;;22.33;14.25;;;;;;;;;;5114004;28;20038;-67
2021/06/24 00:19:04;;;;;;;21.17;14.18;;;;;;;;;;5113903;28;20031;-67
2021/06/24 00:21:29;;;;;;;28.98;17.35;;;;;;;;;;5113148;28;20027;-67
2021/06/24 00:23:55;;;;;;;17.63;13.23;;;;;;;;;;5113610;28;20440;-67
2021/06/24 00:26:20;;;;;;;23.05;14.18;;;;;;;;;;5112943;28;20024;-68
2021/06/24 00:28:45;;;;;;;23.45;14.55;;;;;;;;;;5113581;28;20024;-68
2021/06/24 00:31:10;;;;;;;21.85;15.15;;;;;;;;;;5111961;28;20428;-67
2021/06/24 00:33:36;;;;;;;25.70;15.05;;;;;;;;;;5074838;28;20016;-67
2021/06/24 00:36:04;;;;;;;22.52;14.18;;;;;;;;;;5093031;28;20055;-67
2021/06/24 00:38:29;;;;;;;18.90;13.45;;;;;;;;;;5103903;28;20068;-67
2021/06/24 00:40:54;;;;;;;23.25;13.35;;;;;;;;;;5112899;28;20023;-67
2021/06/24 00:43:22;;;;;;;19.40;13.57;;;;;;;;;;5104502;28;20094;-67
2021/06/24 00:45:50;;;;;;;23.13;14.68;;;;;;;;;;5102416;28;20296;-67
2021/06/24 00:48:15;;;;;;;21.23;15.07;;;;;;;;;;5106365;28;20026;-67
2021/06/24 00:50:41;;;;;;;24.55;13.85;;;;;;;;;;5102598;28;20024;-67
2021/06/24 00:53:07;;;;;;;19.30;14.05;;;;;;;;;;5113435;28;20027;-67
2021/06/24 00:55:43;;;;;;;20.30;14.82;;;;;;;;;;5114537;28;20348;-68
2021/06/24 00:58:08;;;;;;;20.55;15.27;;;;;;;;;;5108267;28;20012;-67
2021/06/24 01:00:34;;;;;;;29.67;16.87;;;;;;;;;;5111537;28;20089;-67
2021/06/24 01:02:59;;;;;;;19.58;15.07;;;;;;;;;;5096431;28;20327;-68
2021/06/24 01:05:27;;;;;;;20.42;14.52;;;;;;;;;;5078504;28;20044;-67
2021/06/24 01:07:55;;;;;;;21.85;17.75;;;;;;;;;;5096667;28;20051;-68
2021/06/24 01:10:20;;;;;;;18.13;15.25;;;;;;;;;;5115695;28;20023;-69
2021/06/24 01:12:46;;;;;;;19.70;15.88;;;;;;;;;;5116127;28;20030;-69
2021/06/24 01:15:11;;;;;;;19.67;15.13;;;;;;;;;;5106454;28;20433;-67
2021/06/24 01:17:37;;;;;;;20.70;15.60;;;;;;;;;;5101155;28;21263;-66
2021/06/24 01:20:05;;;;;;;17.65;13.77;;;;;;;;;;5083155;28;20397;-66
2021/06/24 01:22:30;;;;;;;22.17;15.90;;;;;;;;;;5077694;28;20429;-67
2021/06/24 01:24:55;;;;;;;25.83;18.17;;;;;;;;;;5095879;28;20028;-66
2021/06/24 01:27:20;;;;;;;40.43;27.87;;;;;;;;;;5096116;28;20016;-66
2021/06/24 01:29:48;;;;;;;40.77;28.20;;;;;;;;;;5098730;28;20286;-66
2021/06/24 01:32:13;;;;;;;38.38;27.05;;;;;;;;;;5095622;28;20250;-66
2021/06/24 01:34:40;;;;;;;51.85;31.42;;;;;;;;;;5095497;28;20066;-67
2021/06/24 01:37:06;;;;;;;45.30;28.70;;;;;;;;;;5095279;28;20035;-67
2021/06/24 01:39:31;;;;;;;44.30;26.70;;;;;;;;;;5095943;28;20023;-66
2021/06/24 01:41:57;;;;;;;37.90;25.83;;;;;;;;;;5112813;28;20066;-66
2021/06/24 01:44:33;;;;;;;36.80;27.42;;;;;;;;;;5116091;28;20349;-67
2021/06/24 01:46:59;;;;;;;38.25;28.02;;;;;;;;;;5098447;28;20107;-67
2021/06/24 01:49:24;;;;;;;46.20;28.25;;;;;;;;;;5095746;28;20102;-66
2021/06/24 01:51:49;;;;;;;41.40;28.35;;;;;;;;;;5095473;28;20466;-67
2021/06/24 01:54:21;;;;;;;38.75;28.10;;;;;;;;;;5095627;28;20052;-66
2021/06/24 01:56:46;;;;;;;36.38;25.00;;;;;;;;;;5095824;28;20533;-67
2021/06/24 01:59:12;;;;;;;35.95;26.25;;;;;;;;;;5106218;28;20111;-67
2021/06/24 02:01:37;;;;;;;42.97;27.40;;;;;;;;;;5115518;28;20035;-67
2021/06/24 02:04:02;;;;;;;26.85;21.45;;;;;;;;;;5115725;28;20032;-67
2021/06/24 02:06:27;;;;;;;40.92;26.52;;;;;;;;;;5115058;28;20044;-67
2021/06/24 02:08:53;;;;;;;43.43;26.67;;;;;;;;;;5096752;28;20053;-67
2021/06/24 02:11:18;;;;;;;33.55;24.63;;;;;;;;;;5115753;28;20260;-67
2021/06/24 02:13:46;;;;;;;34.88;24.83;;;;;;;;;;5097755;28;20023;-67
2021/06/24 02:16:11;;;;;;;36.47;25.05;;;;;;;;;;5092635;28;20069;-67
2021/06/24 02:18:37;;;;;;;36.17;26.25;;;;;;;;;;5077411;28;20023;-67
2021/06/24 02:21:04;;;;;;;25.35;22.65;;;;;;;;;;5095106;28;20016;-68
2021/06/24 02:23:29;;;;;;;41.00;26.48;;;;;;;;;;5094574;28;20024;-67
2021/06/24 02:25:54;;;;;;;35.17;25.47;;;;;;;;;;5095198;28;20365;-67
2021/06/24 02:28:20;;;;;;;27.10;24.17;;;;;;;;;;5094568;28;20276;-67
2021/06/24 02:30:45;;;;;;;35.72;26.88;;;;;;;;;;5113157;27;20471;-67
2021/06/24 02:33:10;;;;;;;27.67;24.77;;;;;;;;;;5093536;28;20016;-67
2021/06/24 02:35:36;;;;;;;31.73;25.10;;;;;;;;;;5103321;28;20269;-67
2021/06/24 02:38:02;;;;;;;29.35;25.10;;;;;;;;;;5115044;28;20016;-68
2021/06/24 02:40:27;;;;;;;31.02;25.55;;;;;;;;;;5114216;28;20015;-67
2021/06/24 02:42:52;;;;;;;31.15;26.20;;;;;;;;;;5115048;28;20066;-67
2021/06/24 02:45:18;;;;;;;34.35;26.38;;;;;;;;;;5109934;28;20492;-67
2021/06/24 02:47:43;;;;;;;34.22;27.15;;;;;;;;;;5101496;28;20024;-67
2021/06/24 02:50:09;;;;;;;32.45;25.98;;;;;;;;;;5114460;28;20016;-67
2021/06/24 02:52:34;;;;;;;35.47;26.35;;;;;;;;;;5114863;28;20028;-67
2021/06/24 02:54:59;;;;;;;30.48;24.88;;;;;;;;;;5114994;28;20333;-67
2021/06/24 02:57:25;;;;;;;32.90;26.67;;;;;;;;;;5113971;28;20030;-67
2021/06/24 02:59:50;;;;;;;37.60;26.08;;;;;;;;;;5114721;28;20035;-67
2021/06/24 03:02:17;;;;;;;31.50;25.70;;;;;;;;;;5114100;28;20110;-67
2021/06/24 03:04:43;;;;;;;31.80;26.25;;;;;;;;;;5114374;28;20091;-67
2021/06/24 03:07:08;;;;;;;31.37;26.17;;;;;;;;;;5114108;28;20511;-68
2021/06/24 03:09:36;;;;;;;31.90;26.35;;;;;;;;;;5114589;28;20288;-67
2021/06/24 03:12:01;;;;;;;31.13;24.98;;;;;;;;;;5114724;28;20016;-68
2021/06/24 03:14:26;;;;;;;38.03;25.58;;;;;;;;;;5114617;28;20534;-68
2021/06/24 03:16:52;;;;;;;34.30;25.38;;;;;;;;;;5097015;28;20348;-68
2021/06/24 03:19:20;;;;;;;38.42;25.33;;;;;;;;;;5093943;28;20325;-67
2021/06/24 03:21:50;;;;;;;37.28;26.05;;;;;;;;;;5093732;28;20024;-67
2021/06/24 03:24:15;;;;;;;37.60;25.88;;;;;;;;;;5094204;28;20523;-67
2021/06/24 03:26:40;;;;;;;37.97;25.15;;;;;;;;;;5093487;28;20027;-68
2021/06/24 03:29:06;;;;;;;42.42;27.20;;;;;;;;;;5094757;28;20574;-67
2021/06/24 03:31:34;;;;;;;28.05;22.38;;;;;;;;;;5104471;28;20027;-67
2021/06/24 03:33:59;;;;;;;24.92;22.33;;;;;;;;;;5113966;28;20157;-67
2021/06/24 03:36:25;;;;;;;28.60;24.83;;;;;;;;;;5113558;28;20099;-68
2021/06/24 03:38:52;;;;;;;29.45;25.67;;;;;;;;;;5114150;28;20035;-69
2021/06/24 03:41:25;;;;;;;23.63;16.83;;;;;;;;;;5095437;28;20049;-68
2021/06/24 03:43:51;;;;;;;24.83;16.77;;;;;;;;;;5114143;28;20035;-67
2021/06/24 03:46:16;;;;;;;20.05;15.40;;;;;;;;;;5114133;28;20023;-68
2021/06/24 03:48:41;;;;;;;23.27;17.02;;;;;;;;;;5108432;28;20351;-68
2021/06/24 03:51:07;;;;;;;22.60;16.67;;;;;;;;;;5093415;28;20124;-67
2021/06/24 03:53:34;;;;;;;18.75;16.70;;;;;;;;;;5093770;28;20655;-68
2021/06/24 03:55:59;;;;;;;20.55;16.23;;;;;;;;;;5093765;28;20152;-68
2021/06/24 03:58:26;;;;;;;27.23;16.23;;;;;;;;;;5101206;28;20019;-68
2021/06/24 04:00:52;;;;;;;23.27;16.90;;;;;;;;;;5092935;28;20039;-68
2021/06/24 04:03:18;;;;;;;19.70;15.57;;;;;;;;;;5092844;28;20095;-68
2021/06/24 04:05:44;;;;;;;25.35;18.42;;;;;;;;;;5093359;28;20135;-67
2021/06/24 04:08:11;;;;;;;20.52;16.38;;;;;;;;;;5093539;28;20031;-68
2021/06/24 04:10:37;;;;;;;26.27;16.98;;;;;;;;;;5093672;28;20043;-68
2021/06/24 04:13:03;;;;;;;20.67;15.68;;;;;;;;;;5108130;28;20406;-68
2021/06/24 04:15:29;;;;;;;19.10;16.40;;;;;;;;;;5095540;28;20495;-71
2021/06/24 04:17:54;;;;;;;25.40;16.73;;;;;;;;;;5095536;28;20448;-71
2021/06/24 04:20:19;;;;;;;22.40;17.02;;;;;;;;;;5113608;28;20092;-69
2021/06/24 04:22:45;;;;;;;22.92;17.92;;;;;;;;;;5104311;28;20031;-69
2021/06/24 04:25:16;;;;;;;26.02;17.15;;;;;;;;;;5093295;28;20024;-68
2021/06/24 04:27:43;;;;;;;26.77;17.90;;;;;;;;;;5075619;28;20081;-70
2021/06/24 04:30:09;;;;;;;25.48;17.17;;;;;;;;;;5094484;28;20433;-70
2021/06/24 04:32:34;;;;;;;20.98;17.02;;;;;;;;;;5116346;27;20033;-71
2021/06/24 04:35:00;;;;;;;27.60;17.33;;;;;;;;;;5117377;28;20106;-70
2021/06/24 04:37:25;;;;;;;26.05;17.73;;;;;;;;;;5117304;28;20052;-72
2021/06/24 04:39:52;;;;;;;22.42;16.58;;;;;;;;;;5118127;28;20363;-69
2021/06/24 04:42:18;;;;;;;20.77;16.95;;;;;;;;;;5116821;28;20094;-69
2021/06/24 04:44:43;;;;;;;19.17;16.65;;;;;;;;;;5117196;28;20106;-70
2021/06/24 04:47:08;;;;;;;18.73;16.02;;;;;;;;;;5116834;28;20020;-69
2021/06/24 04:49:34;;;;;;;21.20;16.25;;;;;;;;;;5098876;28;20107;-71
2021/06/24 04:51:59;;;;;;;25.17;17.85;;;;;;;;;;5116371;28;20012;-71
2021/06/24 04:54:26;;;;;;;20.83;17.05;;;;;;;;;;5117144;28;20015;-72
2021/06/24 04:56:54;;;;;;;22.70;16.77;;;;;;;;;;5116928;28;20031;-71
2021/06/24 04:59:19;;;;;;;25.63;17.17;;;;;;;;;;5101166;28;20028;-70
2021/06/24 05:01:44;;;;;;;23.97;16.77;;;;;;;;;;5091587;28;20034;-71
2021/06/24 05:04:12;;;;;;;21.13;17.38;;;;;;;;;;5099657;28;20261;-71
2021/06/24 05:06:42;;;;;;;24.48;17.60;;;;;;;;;;5098823;28;20075;-70
2021/06/24 05:09:07;;;;;;;21.10;16.90;;;;;;;;;;5116241;28;20031;-71
2021/06/24 05:11:32;;;;;;;22.42;17.08;;;;;;;;;;5114589;28;20080;-72
2021/06/24 05:13:57;;;;;;;25.58;16.92;;;;;;;;;;5098702;28;20016;-70
2021/06/24 05:16:25;;;;;;;18.57;16.30;;;;;;;;;;5105028;28;20116;-70
2021/06/24 05:18:50;;;;;;;22.85;16.30;;;;;;;;;;5114607;28;20717;-71
2021/06/24 05:21:15;;;;;;;22.05;15.85;;;;;;;;;;5098554;28;20034;-70
2021/06/24 05:23:42;;;;;;;20.55;16.52;;;;;;;;;;5094494;28;20162;-71
2021/06/24 05:26:10;;;;;;;22.98;17.02;;;;;;;;;;5096361;28;20108;-70
2021/06/24 05:28:35;;;;;;;24.75;16.70;;;;;;;;;;5110305;28;20024;-71
2021/06/24 05:31:02;;;;;;;29.95;19.20;;;;;;;;;;5116455;28;20019;-70
2021/06/24 05:33:27;;;;;;;22.50;16.65;;;;;;;;;;5102727;28;20035;-71
2021/06/24 05:35:52;;;;;;;20.48;16.30;;;;;;;;;;5095840;28;20436;-70
2021/06/24 05:38:18;;;;;;;21.70;18.20;;;;;;;;;;5106735;28;20348;-75
2021/06/24 05:40:44;;;;;;;22.25;17.45;;;;;;;;;;5097765;28;20027;-76
2021/06/24 05:43:10;;;;;;;21.30;16.08;;;;;;;;;;5094583;28;20028;-75
2021/06/24 05:45:35;;;;;;;23.83;17.45;;;;;;;;;;5115711;28;20023;-72
2021/06/24 05:48:03;;;;;;;21.30;16.55;;;;;;;;;;5115389;28;20023;-71
2021/06/24 05:50:28;;;;;;;21.80;16.77;;;;;;;;;;5115974;28;20062;-72
2021/06/24 05:52:54;;;;;;;24.02;17.33;;;;;;;;;;5097619;28;20059;-72
2021/06/24 05:55:19;;;;;;;21.38;17.05;;;;;;;;;;5115879;28;20047;-72
2021/06/24 05:57:47;;;;;;;28.20;17.55;;;;;;;;;;5109322;28;20019;-70
2021/06/24 06:00:13;;;;;;;20.85;15.90;;;;;;;;;;5111366;28;20024;-72
2021/06/24 06:02:39;;;;;;;19.45;17.10;;;;;;;;;;5115269;28;20019;-69
2021/06/24 06:05:04;;;;;;;26.38;18.42;;;;;;;;;;5093770;28;20046;-68
2021/06/24 06:07:31;;;;;;;24.60;17.13;;;;;;;;;;5115441;28;20098;-69
2021/06/24 06:09:56;;;;;;;18.63;15.65;;;;;;;;;;5115040;28;20047;-69
2021/06/24 06:12:22;;;;;;;26.00;15.73;;;;;;;;;;5096393;28;20108;-68
2021/06/24 06:14:52;;;;;;;20.17;16.05;;;;;;;;;;5117350;27;20019;-69
2021/06/24 06:17:17;;;;;;;21.02;15.45;;;;;;;;;;5115270;28;20020;-69
2021/06/24 06:19:44;;;;;;;22.10;15.45;;;;;;;;;;5115194;28;20363;-68
2021/06/24 06:22:09;;;;;;;22.52;16.02;;;;;;;;;;5115609;27;20155;-71
2021/06/24 06:24:34;;;;;;;24.50;17.60;;;;;;;;;;5113954;28;20044;-70
2021/06/24 06:27:02;;;;;;;20.30;14.35;;;;;;;;;;5086792;28;20277;-69
2021/06/24 06:29:27;;;;;;;22.83;16.33;;;;;;;;;;5123606;27;20456;-70
2021/06/24 06:31:52;;;;;;;18.95;16.00;;;;;;;;;;5119919;27;20024;-70
2021/06/24 06:34:19;;;;;;;19.53;15.33;;;;;;;;;;5114955;27;20011;-70
2021/06/24 06:36:47;;;;;;;23.88;17.60;;;;;;;;;;5115778;27;20412;-71
2021/06/24 06:39:12;;;;;;;25.65;15.75;;;;;;;;;;5109085;28;20011;-72
2021/06/24 06:41:37;;;;;;;23.88;17.13;;;;;;;;;;5097328;28;20080;-71
2021/06/24 06:44:03;;;;;;;22.20;16.15;;;;;;;;;;5110607;28;20460;-69
2021/06/24 06:46:28;;;;;;;25.27;15.55;;;;;;;;;;5111552;27;20024;-68
2021/06/24 06:48:53;;;;;;;22.17;14.60;;;;;;;;;;5109001;28;20020;-68
2021/06/24 06:51:22;;;;;;;21.27;15.35;;;;;;;;;;5110768;28;20031;-71
2021/06/24 06:53:48;;;;;;;23.33;16.58;;;;;;;;;;5109445;28;20011;-69
2021/06/24 06:56:13;;;;;;;25.13;17.03;;;;;;;;;;5110848;28;20008;-71
2021/06/24 06:58:38;;;;;;;27.75;15.85;;;;;;;;;;5110316;28;20242;-71
2021/06/24 07:01:03;;;;;;;23.17;16.75;;;;;;;;;;5112215;28;20023;-70
2021/06/24 07:03:29;;;;;;;25.50;16.45;;;;;;;;;;5112714;27;20011;-70
2021/06/24 07:05:54;;;;;;;23.30;17.23;;;;;;;;;;5114941;27;20629;-71
2021/06/24 07:08:19;;;;;;;23.37;15.57;;;;;;;;;;5112682;27;20246;-70
2021/06/24 07:10:47;;;;;;;22.40;15.40;;;;;;;;;;5096299;28;20285;-70
2021/06/24 07:13:12;;;;;;;18.70;14.50;;;;;;;;;;5131204;27;20709;-70
2021/06/24 07:15:39;;;;;;;23.42;16.42;;;;;;;;;;5115970;27;20054;-70
2021/06/24 07:18:04;;;;;;;21.77;14.52;;;;;;;;;;5085737;28;20048;-70
2021/06/24 07:20:32;;;;;;;17.38;15.05;;;;;;;;;;5100426;28;20063;-70
2021/06/24 07:22:57;;;;;;;19.77;15.18;;;;;;;;;;5130515;27;20022;-69
2021/06/24 07:25:22;;;;;;;18.13;15.40;;;;;;;;;;5093960;27;20129;-70
2021/06/24 07:27:48;;;;;;;19.38;15.02;;;;;;;;;;5127306;27;20035;-70
2021/06/24 07:30:16;;;;;;;19.33;15.77;;;;;;;;;;5117218;27;20019;-70
2021/06/24 07:32:41;;;;;;;28.02;17.20;;;;;;;;;;5101825;28;20043;-70
2021/06/24 07:35:09;;;;;;;20.38;16.00;;;;;;;;;;5104111;28;20101;-70
2021/06/24 07:37:37;;;;;;;21.63;14.70;;;;;;;;;;5095656;27;20019;-70
2021/06/24 07:40:06;;;;;;;19.08;14.98;;;;;;;;;;5125461;27;20035;-69
2021/06/24 07:42:31;;;;;;;20.83;15.18;;;;;;;;;;5123688;27;20035;-70
2021/06/24 07:44:56;;;;;;;17.23;14.60;;;;;;;;;;5130610;27;20019;-69
2021/06/24 07:47:21;;;;;;;22.47;14.63;;;;;;;;;;5116607;27;20045;-69
2021/06/24 07:49:49;;;;;;;20.98;15.43;;;;;;;;;;5109635;28;20360;-69
2021/06/24 07:52:16;;;;;;;21.08;15.52;;;;;;;;;;5113458;28;20019;-69
2021/06/24 07:54:41;;;;;;;20.58;14.82;;;;;;;;;;5096136;28;20164;-70
2021/06/24 07:57:07;;;;;;;22.33;15.90;;;;;;;;;;5112924;28;20072;-69
2021/06/24 07:59:34;;;;;;;17.73;14.88;;;;;;;;;;5114625;28;20020;-70
2021/06/24 08:01:59;;;;;;;20.45;15.95;;;;;;;;;;5114008;28;20035;-70
2021/06/24 08:04:24;;;;;;;23.17;16.52;;;;;;;;;;5125632;27;20027;-70
2021/06/24 08:06:51;;;;;;;21.75;15.43;;;;;;;;;;5135865;27;20054;-70
2021/06/24 08:09:19;;;;;;;21.95;16.92;;;;;;;;;;5134621;27;20023;-70
2021/06/24 08:11:44;;;;;;;22.10;16.05;;;;;;;;;;5123217;27;20011;-70
2021/06/24 08:14:10;;;;;;;21.73;15.97;;;;;;;;;;5127705;27;20333;-70
2021/06/24 08:16:35;;;;;;;20.52;17.25;;;;;;;;;;5138369;27;20762;-70
2021/06/24 08:19:01;;;;;;;19.10;16.48;;;;;;;;;;5105888;28;20019;-70
2021/06/24 08:21:26;;;;;;;19.58;16.65;;;;;;;;;;5116465;28;20027;-70
2021/06/24 08:23:54;;;;;;;25.23;17.35;;;;;;;;;;5099897;28;20029;-69
2021/06/24 08:26:19;;;;;;;20.42;16.98;;;;;;;;;;5129004;27;20031;-67
2021/06/24 08:28:45;;;;;;;23.85;18.10;;;;;;;;;;5129361;27;20135;-68
2021/06/24 08:31:10;;;;;;;21.17;17.25;;;;;;;;;;5102736;27;20020;-69
2021/06/24 08:33:35;;;;;;;23.25;19.15;;;;;;;;;;5126794;27;20090;-68
2021/06/24 08:36:00;;;;;;;23.17;19.03;;;;;;;;;;5129368;27;20460;-68
2021/06/24 08:38:26;;;;;;;23.83;18.27;;;;;;;;;;5126983;27;20276;-68
2021/06/24 08:40:51;;;;;;;23.67;18.55;;;;;;;;;;5128001;27;20272;-69
2021/06/24 08:43:16;;;;;;;24.55;18.52;;;;;;;;;;5118351;27;20066;-67
2021/06/24 08:45:41;;;;;;;27.08;18.02;;;;;;;;;;5121083;27;20012;-68
2021/06/24 08:48:14;;;;;;;22.88;17.35;;;;;;;;;;5132800;27;20022;-68
2021/06/24 08:50:46;;;;;;;22.08;17.80;;;;;;;;;;5112862;27;20034;-68
2021/06/24 08:53:11;;;;;;;22.95;17.98;;;;;;;;;;5120222;27;20027;-69
2021/06/24 08:55:40;;;;;;;21.83;18.13;;;;;;;;;;5132306;27;20019;-69
2021/06/24 08:58:08;;;;;;;22.42;16.77;;;;;;;;;;5111118;27;20030;-68
2021/06/24 09:00:38;;;;;;;22.02;17.13;;;;;;;;;;5099059;28;20069;-68
2021/06/24 09:03:14;;;;;;;22.35;19.05;;;;;;;;;;5117381;27;20012;-68
2021/06/24 09:05:53;;;;;;;24.60;18.92;;;;;;;;;;5115407;27;20048;-68
2021/06/24 09:08:38;;;;;;;20.58;16.88;;;;;;;;;;5137379;27;20562;-68
2021/06/24 09:11:07;;;;;;;26.27;16.90;;;;;;;;;;5119159;27;20023;-68
2021/06/24 09:13:32;;;;;;;24.27;18.90;;;;;;;;;;5132832;27;20022;-68
2021/06/24 09:16:03;;;;;;;19.88;17.15;;;;;;;;;;5111038;28;20099;-69
2021/06/24 09:18:28;;;;;;;19.85;16.10;;;;;;;;;;5127208;27;20015;-68
2021/06/24 09:20:54;;;;;;;18.80;16.27;;;;;;;;;;5136865;27;20019;-68
2021/06/24 09:23:23;;;;;;;21.50;16.42;;;;;;;;;;5110973;27;20070;-68
2021/06/24 09:26:06;;;;;;;25.60;17.52;;;;;;;;;;5130162;27;20019;-69
2021/06/24 09:28:58;;;;;;;20.25;17.02;;;;;;;;;;5106309;27;20514;-69
2021/06/24 09:31:29;;;;;;;19.67;16.70;;;;;;;;;;5130723;27;20126;-68
2021/06/24 09:33:55;;;;;;;18.88;15.93;;;;;;;;;;5123467;27;20023;-69
2021/06/24 09:36:33;;;;;;;21.73;17.15;;;;;;;;;;5136578;27;20087;-71
2021/06/24 09:38:59;;;;;;;26.92;17.52;;;;;;;;;;5106078;27;20019;-69
2021/06/24 09:41:25;;;;;;;19.83;17.73;;;;;;;;;;5132486;27;20077;-69
2021/06/24 09:43:50;;;;;;;19.50;16.85;;;;;;;;;;5104089;27;20034;-70
2021/06/24 09:46:20;;;;;;;23.00;16.45;;;;;;;;;;5125997;27;20047;-69
2021/06/24 09:48:51;;;;;;;23.20;16.02;;;;;;;;;;5121010;27;20026;-69
2021/06/24 09:51:25;;;;;;;19.65;17.13;;;;;;;;;;5124816;27;20087;-70
2021/06/24 09:53:50;;;;;;;17.50;15.43;;;;;;;;;;5107721;27;20497;-71
2021/06/24 09:56:21;;;;;;;22.90;15.60;;;;;;;;;;5120530;27;20095;-71
2021/06/24 09:58:49;;;;;;;20.77;15.40;;;;;;;;;;5112266;27;20330;-71
2021/06/24 10:01:33;;;;;;;14.52;13.02;;;;;;;;;;5111921;27;20304;-70
2021/06/24 10:04:00;;;;;;;17.48;14.00;;;;;;;;;;5110102;28;20386;-70
2021/06/24 10:06:25;;;;;;;19.55;16.33;;;;;;;;;;5114869;27;20043;-71
2021/06/24 10:08:51;;;;;;;18.38;16.48;;;;;;;;;;5112641;27;20360;-71
2021/06/24 10:11:17;;;;;;;17.40;15.60;;;;;;;;;;5097349;27;20279;-71
2021/06/24 10:13:44;;;;;;;17.65;13.68;;;;;;;;;;5108317;28;20132;-70
2021/06/24 10:16:10;;;;;;;17.50;14.10;;;;;;;;;;5114547;27;20068;-71
2021/06/24 10:18:35;;;;;;;17.02;14.27;;;;;;;;;;5114243;27;20007;-71
2021/06/24 10:21:01;;;;;;;19.08;14.77;;;;;;;;;;5111575;28;20115;-70
2021/06/24 10:23:27;;;;;;;20.60;15.13;;;;;;;;;;5109355;28;20026;-71
2021/06/24 10:25:52;;;;;;;17.00;13.95;;;;;;;;;;5093776;28;20365;-71
2021/06/24 10:28:18;;;;;;;20.70;16.35;;;;;;;;;;5110898;28;20024;-71
2021/06/24 10:30:43;;;;;;;17.42;13.70;;;;;;;;;;5110525;27;20116;-71
2021/06/24 10:33:14;;;;;;;16.75;13.35;;;;;;;;;;5114221;27;20031;-71
2021/06/24 10:35:41;;;;;;;21.50;14.70;;;;;;;;;;5107833;27;20094;-73
2021/06/24 10:38:07;;;;;;;20.50;15.93;;;;;;;;;;5135693;27;20029;-72
2021/06/24 10:40:34;;;;;;;20.10;15.88;;;;;;;;;;5113948;27;20525;-75
2021/06/24 10:43:01;;;;;;;18.40;15.63;;;;;;;;;;5115095;27;20081;-71
2021/06/24 10:45:27;;;;;;;19.85;13.95;;;;;;;;;;5101891;27;20458;-74
2021/06/24 10:47:55;;;;;;;18.52;15.80;;;;;;;;;;5108116;27;20031;-70
2021/06/24 10:50:30;;;;;;;15.88;13.80;;;;;;;;;;5135497;27;20435;-70
2021/06/24 10:52:56;;;;;;;20.30;14.23;;;;;;;;;;5119164;27;20027;-69
2021/06/24 10:55:41;;;;;;;17.67;13.90;;;;;;;;;;5099398;28;20440;-69
2021/06/24 10:58:18;;;;;;;17.38;13.25;;;;;;;;;;5114406;28;20024;-70
2021/06/24 11:00:50;;;;;;;14.93;12.43;;;;;;;;;;5125589;27;20023;-70
2021/06/24 11:03:17;;;;;;;18.60;12.88;;;;;;;;;;5116379;27;20099;-69
2021/06/24 11:05:49;;;;;;;17.92;12.65;;;;;;;;;;5107084;28;20126;-69
2021/06/24 11:08:15;;;;;;;16.63;14.25;;;;;;;;;;5112732;28;20035;-70
2021/06/24 11:11:00;;;;;;;25.15;15.90;;;;;;;;;;5113319;28;20467;-69
2021/06/24 11:13:41;;;;;;;21.63;15.43;;;;;;;;;;5113787;28;20024;-70
2021/06/24 11:16:07;;;;;;;17.48;13.60;;;;;;;;;;5114638;27;20035;-71
2021/06/24 11:18:35;;;;;;;16.17;12.97;;;;;;;;;;5092279;28;20027;-69
2021/06/24 11:21:02;;;;;;;15.07;12.57;;;;;;;;;;5096267;28;20677;-72
2021/06/24 11:23:31;;;;;;;15.20;12.63;;;;;;;;;;5126952;27;20020;-72
2021/06/24 11:26:09;;;;;;;13.40;12.02;;;;;;;;;;5110136;27;20058;-72
2021/06/24 11:28:39;;;;;;;16.27;11.95;;;;;;;;;;5119697;27;20031;-70
2021/06/24 11:31:06;;;;;;;16.40;13.02;;;;;;;;;;5114284;28;20027;-70
2021/06/24 11:33:35;;;;;;;16.33;11.88;;;;;;;;;;5119013;27;20399;-71
2021/06/24 11:36:13;;;;;;;14.57;11.93;;;;;;;;;;5125959;27;20019;-70
2021/06/24 11:38:42;;;;;;;12.48;11.18;;;;;;;;;;5118049;27;20444;-70
2021/06/24 11:41:09;;;;;;;11.75;10.43;;;;;;;;;;5113235;28;20031;-70
2021/06/24 11:43:34;;;;;;;12.80;10.07;;;;;;;;;;5118771;27;20087;-70
2021/06/24 11:46:01;;;;;;;13.77;10.65;;;;;;;;;;5126214;27;20448;-70
2021/06/24 11:48:26;;;;;;;12.85;11.40;;;;;;;;;;5124826;27;20075;-70
2021/06/24 12:04:46;;;;;;;;;;;;;;;;;;5113677;28;20069;-73
2021/06/24 12:07:15;;;;;;;10.57;8.57;;;;;;;;;;5110180;28;19959;-74
2021/06/24 12:09:41;;;;;;;10.82;8.68;;;;;;;;;;5126096;28;20023;-74
2021/06/24 12:12:07;;;;;;;13.07;9.32;;;;;;;;;;5122934;28;20011;-74
2021/06/24 12:14:33;;;;;;;10.63;8.43;;;;;;;;;;5103251;28;20451;-74
2021/06/24 12:17:04;;;;;;;10.57;8.98;;;;;;;;;;5112871;28;20440;-76
2021/06/24 12:19:48;;;;;;;10.75;8.80;;;;;;;;;;5093291;28;20136;-73
2021/06/24 12:22:15;;;;;;;9.13;7.80;;;;;;;;;;5096236;28;20028;-74
2021/06/24 12:24:44;;;;;;;12.48;9.27;;;;;;;;;;5117475;28;20016;-74
2021/06/24 12:27:20;;;;;;;12.20;9.25;;;;;;;;;;5131657;28;20018;-73
2021/06/24 12:29:48;;;;;;;11.45;9.60;;;;;;;;;;5095671;28;20024;-74
2021/06/24 12:32:16;;;;;;;13.55;9.55;;;;;;;;;;5112605;28;20052;-74
2021/06/24 12:34:41;;;;;;;13.50;9.75;;;;;;;;;;5127716;28;20341;-73
2021/06/24 12:37:06;;;;;;;13.43;10.18;;;;;;;;;;5105467;28;20020;-74
2021/06/24 12:39:31;;;;;;;11.10;9.48;;;;;;;;;;5093019;28;20035;-74
2021/06/24 12:41:57;;;;;;;12.00;9.70;;;;;;;;;;5093185;28;20396;-74
2021/06/24 12:44:22;;;;;;;11.60;10.50;;;;;;;;;;5116372;28;20026;-73
2021/06/24 12:46:50;;;;;;;13.52;9.93;;;;;;;;;;5103393;28;20038;-73
2021/06/24 12:49:18;;;;;;;12.40;9.68;;;;;;;;;;5113228;28;20088;-73
2021/06/24 12:51:44;;;;;;;11.68;9.70;;;;;;;;;;5113154;27;20020;-73
2021/06/24 12:54:14;;;;;;;13.25;10.07;;;;;;;;;;5108904;27;20094;-73
2021/06/24 12:56:43;;;;;;;11.85;9.52;;;;;;;;;;5123592;27;20027;-73
2021/06/24 12:59:09;;;;;;;13.30;9.85;;;;;;;;;;5114949;28;20420;-74
2021/06/24 13:01:36;;;;;;;10.65;9.23;;;;;;;;;;5103485;27;20015;-73
2021/06/24 13:04:08;;;;;;;10.27;9.18;;;;;;;;;;5125139;27;20020;-73
2021/06/24 13:06:39;;;;;;;9.65;8.70;;;;;;;;;;5115452;28;20123;-73
2021/06/24 13:09:06;;;;;;;10.93;8.35;;;;;;;;;;5116188;27;20016;-74
2021/06/24 13:11:45;;;;;;;11.18;8.80;;;;;;;;;;5117353;27;20088;-74
2021/06/24 13:14:17;;;;;;;10.88;8.27;;;;;;;;;;5116218;27;20015;-73
2021/06/24 13:17:20;;;;;;;14.70;8.65;;;;;;;;;;5131164;27;20388;-73
2021/06/24 13:19:50;;;;;;;9.85;8.40;;;;;;;;;;5041686;28;20033;-74
2021/06/24 13:22:16;;;;;;;9.98;8.80;;;;;;;;;;5100959;28;20039;-74
2021/06/24 13:24:41;;;;;;;10.38;8.15;;;;;;;;;;5124880;27;20048;-74
2021/06/24 13:27:07;;;;;;;11.23;8.13;;;;;;;;;;5129325;27;20036;-74
2021/06/24 13:29:35;;;;;;;12.13;8.93;;;;;;;;;;5115646;27;20110;-73
2021/06/24 13:32:00;;;;;;;9.65;8.65;;;;;;;;;;5114559;27;20034;-73
2021/06/24 13:34:29;;;;;;;11.77;8.57;;;;;;;;;;5124629;27;20019;-73
2021/06/24 13:37:10;;;;;;;12.45;8.50;;;;;;;;;;5112838;27;20705;-73
2021/06/24 13:39:35;;;;;;;10.73;8.80;;;;;;;;;;5118257;27;20046;-73
2021/06/24 13:42:01;;;;;;;14.82;9.10;;;;;;;;;;5117031;27;20432;-73
2021/06/24 13:44:26;;;;;;;10.13;7.47;;;;;;;;;;5117643;27;20028;-73
2021/06/24 13:46:54;;;;;;;8.32;7.63;;;;;;;;;;5116221;27;20026;-73
2021/06/24 13:49:21;;;;;;;11.85;8.20;;;;;;;;;;5115649;28;20120;-73
2021/06/24 13:51:48;;;;;;;11.55;7.95;;;;;;;;;;5115719;27;20011;-73
2021/06/24 13:54:20;;;;;;;7.97;6.82;;;;;;;;;;5113262;27;20017;-73
2021/06/24 13:56:46;;;;;;;9.60;7.40;;;;;;;;;;5089278;28;20436;-73
2021/06/24 13:59:12;;;;;;;9.85;7.10;;;;;;;;;;5112653;27;20008;-73
2021/06/24 14:01:38;;;;;;;8.13;6.40;;;;;;;;;;5115497;27;20027;-73
2021/06/24 14:04:03;;;;;;;6.72;5.40;;;;;;;;;;5110738;28;20106;-73
2021/06/24 14:06:36;;;;;;;6.47;5.00;;;;;;;;;;5110438;27;20035;-74
2021/06/24 14:09:06;;;;;;;6.47;4.80;;;;;;;;;;5111776;27;20012;-73
2021/06/24 14:11:31;;;;;;;9.90;5.50;;;;;;;;;;5098030;28;20019;-74
2021/06/24 14:13:56;;;;;;;8.75;4.97;;;;;;;;;;5109528;28;20433;-75
2021/06/24 14:16:22;;;;;;;7.68;4.78;;;;;;;;;;5116745;27;20007;-74
2021/06/24 14:18:47;;;;;;;6.93;4.70;;;;;;;;;;5108951;28;20016;-73
2021/06/24 14:21:14;;;;;;;6.72;4.80;;;;;;;;;;5092455;28;20249;-73
2021/06/24 14:23:39;;;;;;;6.75;4.60;;;;;;;;;;5094159;28;20024;-73
2021/06/24 14:26:05;;;;;;;6.13;4.55;;;;;;;;;;5114547;28;20031;-73
2021/06/24 14:28:32;;;;;;;6.82;5.10;;;;;;;;;;5103283;28;20487;-73
2021/06/24 14:30:58;;;;;;;5.25;4.50;;;;;;;;;;5109329;27;20023;-75
2021/06/24 14:33:25;;;;;;;6.95;4.78;;;;;;;;;;5118650;27;20015;-73
2021/06/24 14:35:51;;;;;;;7.45;4.22;;;;;;;;;;5128021;27;20023;-73